Time;durP1;ratioP1;P1;durP2;ratioP2;P2;SDS_P1;SDS_P2;PMS_P1;PMS_P2;Temp;Humidity;BMP_temperature;BMP_pressure;BME280_temperature;BME280_humidity;BME280_pressure;Samples;Min_cycle;Max_cycle;Signal;HPM_P1;HPM_P2
2022/06/30 00:00:41;;;;;;;8.70;7.13;;;22.30;86.80;;;;;;5108284;28;20037;-60
2022/06/30 00:03:06;;;;;;;8.50;6.70;;;22.30;86.80;;;;;;5107120;28;20384;-60
2022/06/30 00:05:32;;;;;;;8.18;6.53;;;22.40;87.00;;;;;;5114342;28;20085;-60
2022/06/30 00:07:58;;;;;;;8.90;8.00;;;22.50;87.00;;;;;;5115829;28;20019;-60
2022/06/30 00:10:24;;;;;;;9.80;8.30;;;22.50;87.00;;;;;;5114484;28;20031;-60
2022/06/30 00:12:49;;;;;;;10.23;8.75;;;22.50;86.90;;;;;;5109682;28;20055;-60
2022/06/30 00:15:15;;;;;;;9.07;7.88;;;22.60;86.90;;;;;;5109732;28;20027;-60
2022/06/30 00:17:41;;;;;;;7.18;6.30;;;22.60;87.30;;;;;;5112588;28;20023;-60
2022/06/30 00:20:07;;;;;;;5.30;4.80;;;22.60;86.80;;;;;;5103015;27;20395;-60
2022/06/30 00:22:33;;;;;;;4.60;4.03;;;22.60;86.70;;;;;;5115214;28;20027;-60
2022/06/30 00:24:59;;;;;;;5.10;3.97;;;22.60;86.70;;;;;;5114261;28;20100;-60
2022/06/30 00:27:24;;;;;;;4.28;3.60;;;22.70;86.70;;;;;;5113591;28;20020;-60
2022/06/30 00:29:50;;;;;;;6.72;4.13;;;22.60;86.60;;;;;;5111749;28;20398;-60
2022/06/30 00:32:16;;;;;;;4.40;3.50;;;22.70;86.70;;;;;;5109649;27;20396;-60
2022/06/30 00:34:42;;;;;;;4.38;3.72;;;22.70;86.60;;;;;;5114537;28;20016;-60
2022/06/30 00:37:07;;;;;;;5.18;4.20;;;22.70;86.50;;;;;;5115469;28;20532;-60
2022/06/30 00:39:33;;;;;;;5.07;3.85;;;22.70;86.50;;;;;;5115258;28;20081;-60
2022/06/30 00:41:59;;;;;;;4.95;4.10;;;22.70;86.60;;;;;;5106625;28;20015;-60
2022/06/30 00:44:24;;;;;;;4.78;3.85;;;22.70;86.80;;;;;;5111492;28;20044;-60
2022/06/30 00:46:50;;;;;;;3.97;3.53;;;22.60;87.00;;;;;;5107394;28;20027;-60
2022/06/30 00:49:18;;;;;;;5.45;3.95;;;22.70;87.30;;;;;;5104283;28;20368;-60
2022/06/30 00:51:43;;;;;;;4.15;3.75;;;22.70;87.50;;;;;;5112201;28;20383;-60
2022/06/30 00:54:12;;;;;;;3.35;2.80;;;22.60;87.60;;;;;;5115190;28;20012;-60
2022/06/30 00:56:41;;;;;;;4.28;3.60;;;22.60;87.60;;;;;;5110403;28;20372;-60
2022/06/30 00:59:09;;;;;;;3.78;3.33;;;22.60;87.80;;;;;;5110562;28;20019;-60
2022/06/30 01:01:37;;;;;;;4.25;3.85;;;22.60;87.80;;;;;;5112886;28;20023;-60
2022/06/30 01:04:03;;;;;;;4.43;3.65;;;22.60;87.90;;;;;;5109227;28;20050;-60
2022/06/30 01:06:29;;;;;;;4.28;3.75;;;22.50;87.70;;;;;;5113831;28;20073;-60
2022/06/30 01:08:56;;;;;;;5.20;3.45;;;22.50;87.50;;;;;;5114421;28;20023;-59
2022/06/30 01:14:06;;;;;;;3.70;3.13;;;22.40;87.10;;;;;;5108643;28;20029;-60
2022/06/30 01:16:32;;;;;;;3.95;3.55;;;22.30;87.10;;;;;;5114143;28;20027;-60
2022/06/30 01:18:58;;;;;;;3.08;2.78;;;22.30;86.80;;;;;;5108178;27;20033;-60
2022/06/30 01:21:27;;;;;;;3.75;3.35;;;22.30;86.70;;;;;;5103401;28;20028;-60
2022/06/30 01:23:54;;;;;;;3.95;3.35;;;22.30;86.40;;;;;;5114392;28;20028;-60
2022/06/30 01:26:23;;;;;;;4.60;3.60;;;22.30;86.40;;;;;;5113107;27;20035;-60
2022/06/30 01:28:50;;;;;;;3.38;2.88;;;22.30;86.30;;;;;;5114554;28;20387;-60
2022/06/30 01:31:16;;;;;;;3.90;3.47;;;22.30;86.30;;;;;;5112488;28;20020;-60
2022/06/30 01:33:41;;;;;;;4.43;3.67;;;22.30;86.40;;;;;;5105703;28;20024;-60
2022/06/30 01:36:07;;;;;;;3.22;2.92;;;22.20;86.20;;;;;;5109190;28;20103;-60
2022/06/30 01:38:33;;;;;;;3.95;3.55;;;22.20;86.20;;;;;;5114113;28;20084;-60
2022/06/30 01:40:58;;;;;;;5.50;3.90;;;22.30;86.40;;;;;;5108709;28;20102;-60
2022/06/30 01:43:24;;;;;;;3.90;3.50;;;22.20;86.40;;;;;;5113686;28;20082;-60
2022/06/30 01:45:49;;;;;;;3.83;3.30;;;22.20;86.50;;;;;;5113872;28;20067;-60
2022/06/30 01:48:15;;;;;;;3.95;3.47;;;22.20;86.50;;;;;;5110579;28;20020;-60
2022/06/30 01:50:41;;;;;;;4.22;3.25;;;22.20;86.70;;;;;;5107518;28;20039;-60
2022/06/30 01:53:06;;;;;;;5.32;3.10;;;22.20;86.80;;;;;;5104205;28;20450;-60
2022/06/30 01:55:32;;;;;;;3.67;3.33;;;22.20;87.00;;;;;;5113504;28;20097;-60
2022/06/30 01:57:58;;;;;;;4.25;3.25;;;22.20;87.20;;;;;;5112995;28;20500;-60
2022/06/30 02:00:26;;;;;;;3.65;3.03;;;22.20;87.00;;;;;;5106305;28;20031;-60
2022/06/30 02:02:53;;;;;;;3.50;3.08;;;22.20;87.10;;;;;;5113358;28;20618;-60
2022/06/30 02:05:19;;;;;;;3.13;2.83;;;22.20;87.20;;;;;;5099796;28;20467;-60
2022/06/30 02:07:45;;;;;;;2.95;2.70;;;22.20;87.30;;;;;;5113205;28;20027;-60
2022/06/30 02:10:15;;;;;;;3.90;3.42;;;22.20;87.70;;;;;;5106810;28;20024;-60
2022/06/30 02:12:47;;;;;;;3.70;2.95;;;22.20;87.50;;;;;;5103574;28;20024;-60
2022/06/30 02:15:14;;;;;;;3.85;3.28;;;22.30;87.50;;;;;;5112746;28;20027;-60
2022/06/30 02:17:40;;;;;;;4.10;2.90;;;22.30;87.40;;;;;;5113109;28;20094;-60
2022/06/30 02:20:08;;;;;;;3.63;3.20;;;22.30;87.60;;;;;;5096958;28;20085;-60
2022/06/30 02:22:35;;;;;;;3.70;3.28;;;22.30;87.60;;;;;;5112568;28;20034;-60
2022/06/30 02:25:01;;;;;;;3.25;2.95;;;22.30;87.50;;;;;;5110702;28;20456;-60
2022/06/30 02:27:27;;;;;;;4.22;3.03;;;22.40;87.30;;;;;;5107713;28;20062;-60
2022/06/30 02:29:52;;;;;;;3.08;2.78;;;22.40;87.20;;;;;;5109417;28;20038;-60
2022/06/30 02:32:19;;;;;;;2.67;2.47;;;22.40;87.00;;;;;;5112732;28;20023;-60
2022/06/30 02:34:45;;;;;;;2.95;2.60;;;22.40;86.90;;;;;;5102039;28;20533;-60
2022/06/30 02:37:11;;;;;;;3.10;2.80;;;22.50;87.00;;;;;;5105712;28;20024;-60
2022/06/30 02:39:37;;;;;;;4.25;3.20;;;22.50;87.00;;;;;;5112847;28;20031;-60
2022/06/30 02:42:03;;;;;;;3.40;2.80;;;22.50;86.80;;;;;;5112142;28;20015;-60
2022/06/30 02:44:29;;;;;;;5.18;3.47;;;22.60;86.50;;;;;;5108145;28;20026;-60
2022/06/30 02:46:55;;;;;;;4.22;3.25;;;22.60;86.40;;;;;;5110601;28;20491;-60
2022/06/30 02:49:21;;;;;;;3.30;3.00;;;22.60;86.20;;;;;;5107396;28;20019;-59
2022/06/30 02:51:49;;;;;;;3.28;2.97;;;22.60;86.10;;;;;;5101551;28;20222;-60
2022/06/30 02:54:14;;;;;;;4.68;3.35;;;22.70;86.10;;;;;;5112554;28;20027;-60
2022/06/30 02:56:40;;;;;;;3.72;2.90;;;22.70;85.80;;;;;;5109104;28;20419;-60
2022/06/30 02:59:06;;;;;;;3.20;2.90;;;22.80;85.80;;;;;;5112395;28;20027;-60
2022/06/30 03:01:32;;;;;;;3.10;2.80;;;22.80;85.60;;;;;;5102658;28;20023;-60
2022/06/30 03:03:59;;;;;;;4.90;2.90;;;22.90;85.70;;;;;;5109615;28;20020;-60
2022/06/30 03:06:26;;;;;;;3.30;2.70;;;22.90;85.30;;;;;;5109951;28;20020;-60
2022/06/30 03:08:52;;;;;;;3.17;2.88;;;23.00;85.30;;;;;;5110895;28;20517;-60
2022/06/30 03:11:18;;;;;;;3.08;2.80;;;23.00;84.90;;;;;;5112159;28;20023;-60
2022/06/30 03:13:44;;;;;;;2.90;2.63;;;23.00;84.70;;;;;;5107620;28;20099;-60
2022/06/30 03:16:11;;;;;;;3.58;3.15;;;23.10;84.40;;;;;;5113014;28;20016;-60
2022/06/30 03:18:36;;;;;;;2.92;2.60;;;23.10;83.90;;;;;;5105570;28;20391;-60
2022/06/30 03:21:02;;;;;;;3.88;3.40;;;23.10;83.70;;;;;;5104904;28;20038;-60
2022/06/30 03:23:28;;;;;;;4.28;3.45;;;23.10;83.60;;;;;;5112283;28;20028;-60
2022/06/30 03:25:53;;;;;;;4.75;3.53;;;23.20;83.50;;;;;;5107361;28;20028;-60
2022/06/30 03:28:19;;;;;;;4.05;3.65;;;23.20;83.30;;;;;;5112722;28;20032;-60
2022/06/30 03:30:47;;;;;;;5.25;4.05;;;23.20;83.10;;;;;;5110699;28;20031;-60
2022/06/30 03:33:14;;;;;;;3.35;3.05;;;23.30;83.20;;;;;;5112457;28;20024;-60
2022/06/30 03:35:40;;;;;;;5.03;3.67;;;23.30;83.00;;;;;;5109931;28;20036;-60
2022/06/30 03:38:06;;;;;;;3.55;3.20;;;23.30;82.80;;;;;;5112516;28;20034;-60
2022/06/30 03:40:32;;;;;;;5.05;3.47;;;23.30;82.80;;;;;;5112020;28;20103;-60
2022/06/30 03:42:58;;;;;;;3.90;3.38;;;23.30;83.00;;;;;;5108042;28;20081;-60
2022/06/30 03:45:24;;;;;;;3.38;3.08;;;23.30;83.40;;;;;;5101874;28;20123;-60
2022/06/30 03:47:50;;;;;;;4.38;3.83;;;23.40;83.40;;;;;;5112134;28;20050;-60
2022/06/30 03:50:16;;;;;;;3.33;3.00;;;23.50;83.20;;;;;;5104752;28;20059;-60
2022/06/30 03:52:41;;;;;;;3.50;3.20;;;23.70;83.00;;;;;;5100271;28;20048;-60
2022/06/30 03:55:08;;;;;;;3.35;3.05;;;23.80;82.50;;;;;;5111784;28;20024;-60
2022/06/30 03:57:33;;;;;;;3.28;2.97;;;24.00;82.70;;;;;;5111486;28;20459;-60
2022/06/30 03:59:59;;;;;;;3.53;3.22;;;24.30;82.40;;;;;;5108938;28;20099;-60
2022/06/30 04:02:25;;;;;;;3.50;3.20;;;24.70;81.50;;;;;;5104324;28;20568;-60
2022/06/30 04:04:51;;;;;;;3.28;2.97;;;24.90;80.60;;;;;;5110708;28;20019;-60
2022/06/30 04:07:17;;;;;;;3.78;3.38;;;25.10;80.10;;;;;;5115015;28;20032;-59
2022/06/30 04:09:42;;;;;;;5.13;4.05;;;25.10;79.50;;;;;;5114854;28;20039;-60
2022/06/30 04:12:08;;;;;;;3.60;3.25;;;25.20;79.10;;;;;;5105272;28;20051;-60
2022/06/30 04:14:34;;;;;;;4.25;3.58;;;25.20;78.70;;;;;;5107599;28;20020;-60
2022/06/30 04:17:00;;;;;;;4.53;3.60;;;25.20;78.60;;;;;;5115380;28;20099;-60
2022/06/30 04:19:26;;;;;;;6.10;3.70;;;25.30;78.50;;;;;;5123230;27;20511;-58
2022/06/30 04:21:51;;;;;;;3.97;3.58;;;25.30;78.10;;;;;;5109501;27;20020;-60
2022/06/30 04:24:17;;;;;;;4.30;3.72;;;25.30;77.60;;;;;;5106467;28;20157;-61
2022/06/30 04:26:43;;;;;;;4.10;3.60;;;25.20;77.50;;;;;;5102628;28;20035;-60
2022/06/30 04:29:08;;;;;;;3.80;3.42;;;25.10;77.80;;;;;;5109114;28;20529;-60
2022/06/30 04:34:18;;;;;;;5.63;4.13;;;24.80;77.70;;;;;;5105505;27;20039;-58
2022/06/30 04:36:44;;;;;;;4.82;4.00;;;24.60;78.00;;;;;;5105517;27;20422;-60
2022/06/30 04:39:09;;;;;;;4.15;3.70;;;24.60;78.20;;;;;;5107975;28;20024;-60
2022/06/30 04:41:36;;;;;;;4.45;3.65;;;24.50;78.60;;;;;;5106192;28;20479;-60
2022/06/30 04:44:07;;;;;;;4.10;3.45;;;24.50;78.90;;;;;;5100163;27;20054;-60
2022/06/30 04:46:33;;;;;;;4.72;3.90;;;24.40;79.00;;;;;;5101060;28;20118;-60
2022/06/30 04:49:02;;;;;;;4.90;3.92;;;24.40;79.20;;;;;;5103300;28;20573;-60
2022/06/30 04:51:28;;;;;;;4.32;3.42;;;24.40;79.20;;;;;;5111690;28;20097;-60
2022/06/30 04:53:53;;;;;;;4.60;3.60;;;24.40;79.30;;;;;;5099363;27;20028;-58
2022/06/30 04:56:20;;;;;;;3.80;3.35;;;24.30;79.50;;;;;;5099701;28;20149;-58
2022/06/30 04:58:46;;;;;;;4.72;3.95;;;24.30;79.60;;;;;;5104828;28;20032;-58
2022/06/30 05:01:12;;;;;;;3.97;3.20;;;24.30;79.80;;;;;;5097690;28;20593;-58
2022/06/30 05:03:38;;;;;;;4.50;3.45;;;24.30;79.80;;;;;;5101225;28;20028;-58
2022/06/30 05:06:05;;;;;;;3.90;3.30;;;24.30;80.00;;;;;;5104770;28;20119;-58
2022/06/30 05:08:32;;;;;;;4.10;3.58;;;24.30;80.10;;;;;;5102437;28;20042;-58
2022/06/30 05:10:58;;;;;;;4.65;3.65;;;24.20;80.20;;;;;;5111754;28;20037;-58
2022/06/30 05:13:23;;;;;;;4.00;3.60;;;24.20;80.30;;;;;;5108745;28;20466;-58
2022/06/30 05:15:50;;;;;;;4.13;3.72;;;24.20;80.30;;;;;;5097568;28;20103;-58
2022/06/30 05:18:15;;;;;;;3.38;3.08;;;24.30;80.40;;;;;;5099069;28;20097;-58
2022/06/30 05:20:42;;;;;;;3.95;3.55;;;24.30;80.60;;;;;;5109370;27;20023;-60
2022/06/30 05:23:08;;;;;;;4.28;3.80;;;24.30;80.70;;;;;;5104610;27;20084;-60
2022/06/30 05:28:21;;;;;;;4.00;3.60;;;24.30;80.50;;;;;;5104277;28;20026;-58
2022/06/30 05:30:47;;;;;;;4.30;3.58;;;24.30;80.60;;;;;;5102004;28;20106;-58
2022/06/30 05:33:13;;;;;;;4.63;3.85;;;24.30;80.60;;;;;;5097888;28;20039;-58
2022/06/30 05:35:40;;;;;;;4.22;3.70;;;24.30;80.50;;;;;;5098582;28;20026;-58
2022/06/30 05:38:06;;;;;;;5.25;3.95;;;24.40;80.40;;;;;;5093262;27;20032;-58
2022/06/30 05:40:32;;;;;;;4.25;3.70;;;24.40;80.60;;;;;;5092053;28;20387;-58
2022/06/30 05:42:57;;;;;;;4.45;3.65;;;24.50;80.80;;;;;;5100520;28;20027;-58
2022/06/30 05:45:23;;;;;;;6.55;5.40;;;24.60;81.10;;;;;;5105916;28;20044;-58
2022/06/30 05:47:51;;;;;;;4.47;3.97;;;24.80;81.20;;;;;;5100360;27;20031;-58
2022/06/30 05:50:19;;;;;;;5.18;3.90;;;25.00;81.10;;;;;;5094665;27;20051;-58
2022/06/30 05:52:45;;;;;;;4.65;3.60;;;25.20;80.60;;;;;;5093254;28;20020;-58
2022/06/30 05:55:11;;;;;;;4.40;4.00;;;25.40;80.10;;;;;;5095454;27;20030;-60
2022/06/30 05:57:52;;;;;;;4.80;4.10;;;25.60;79.60;;;;;;5092884;28;20043;-58
2022/06/30 06:00:19;;;;;;;6.38;5.35;;;25.80;79.20;;;;;;5094501;28;20027;-58
2022/06/30 06:02:45;;;;;;;5.15;3.90;;;25.90;78.50;;;;;;5099125;27;20073;-59
2022/06/30 06:05:11;;;;;;;4.88;3.92;;;26.10;78.20;;;;;;5093231;28;20028;-58
2022/06/30 06:07:37;;;;;;;5.22;4.13;;;26.30;77.90;;;;;;5095492;27;20083;-57
2022/06/30 06:10:03;;;;;;;5.10;4.20;;;26.40;77.60;;;;;;5094159;27;20032;-57
2022/06/30 06:12:29;;;;;;;4.97;4.00;;;26.50;77.40;;;;;;5082108;27;20101;-58
2022/06/30 06:14:55;;;;;;;6.32;4.05;;;26.60;77.30;;;;;;5095277;28;20041;-58
2022/06/30 06:17:20;;;;;;;5.20;4.10;;;26.70;77.10;;;;;;5089330;27;20051;-56
2022/06/30 06:19:46;;;;;;;4.38;3.72;;;26.70;76.70;;;;;;5093359;27;20038;-57
2022/06/30 06:22:11;;;;;;;5.03;3.92;;;26.70;76.60;;;;;;5092839;27;20028;-57
2022/06/30 06:24:37;;;;;;;5.10;4.15;;;26.80;76.20;;;;;;5096640;27;20127;-57
2022/06/30 06:27:03;;;;;;;4.75;3.70;;;26.80;76.00;;;;;;5088308;28;20053;-59
2022/06/30 06:29:29;;;;;;;4.65;3.83;;;26.80;75.70;;;;;;5086973;27;20030;-57
2022/06/30 06:31:55;;;;;;;4.90;3.85;;;26.80;75.50;;;;;;5090286;27;20024;-57
2022/06/30 06:34:21;;;;;;;5.03;4.03;;;26.70;75.70;;;;;;5080698;28;20368;-59
2022/06/30 06:36:47;;;;;;;5.85;4.25;;;26.60;75.70;;;;;;5084733;28;20023;-59
2022/06/30 06:39:13;;;;;;;4.70;3.92;;;26.60;75.50;;;;;;5086212;27;20057;-57
2022/06/30 06:41:38;;;;;;;5.53;3.92;;;26.60;75.60;;;;;;5087142;28;20031;-57
2022/06/30 06:44:04;;;;;;;4.18;3.55;;;26.60;75.70;;;;;;5090935;28;20052;-56
2022/06/30 06:46:30;;;;;;;4.68;3.80;;;26.60;75.70;;;;;;5094830;28;20028;-58
2022/06/30 06:49:03;;;;;;;4.68;3.88;;;26.60;75.90;;;;;;5091988;27;20105;-56
2022/06/30 06:51:29;;;;;;;4.53;4.00;;;26.70;75.80;;;;;;5084508;27;20024;-57
2022/06/30 06:53:55;;;;;;;5.60;4.57;;;26.70;75.70;;;;;;5088822;28;20429;-58
2022/06/30 06:56:22;;;;;;;4.47;4.03;;;26.80;75.60;;;;;;5094377;28;20387;-58
2022/06/30 06:58:47;;;;;;;5.72;4.50;;;26.80;75.40;;;;;;5094012;27;20028;-58
2022/06/30 07:01:13;;;;;;;5.38;4.40;;;26.90;75.40;;;;;;5087002;28;20089;-61
2022/06/30 07:03:39;;;;;;;6.65;4.40;;;26.90;75.20;;;;;;5076860;28;20036;-57
2022/06/30 07:06:06;;;;;;;5.60;4.80;;;27.00;75.20;;;;;;5079338;28;20119;-58
2022/06/30 07:08:32;;;;;;;5.50;4.68;;;27.00;75.00;;;;;;5079185;28;20021;-58
2022/06/30 07:10:58;;;;;;;5.22;4.38;;;27.10;75.00;;;;;;5084579;28;20109;-58
2022/06/30 07:13:24;;;;;;;5.95;4.63;;;27.20;75.00;;;;;;5081262;28;20111;-58
2022/06/30 07:15:50;;;;;;;5.72;4.30;;;27.20;74.80;;;;;;5083048;28;20150;-58
2022/06/30 07:18:16;;;;;;;4.85;4.10;;;27.40;74.60;;;;;;5086875;28;20114;-58
2022/06/30 07:20:41;;;;;;;5.43;4.28;;;27.40;74.30;;;;;;5083624;28;20635;-58
2022/06/30 07:23:07;;;;;;;4.93;4.10;;;27.50;74.10;;;;;;5082227;28;20059;-58
2022/06/30 07:25:33;;;;;;;5.38;4.30;;;27.40;73.90;;;;;;5072008;28;20394;-57
2022/06/30 07:27:59;;;;;;;5.47;4.47;;;27.50;73.90;;;;;;5084505;28;20036;-57
2022/06/30 07:30:25;;;;;;;5.57;4.93;;;27.40;73.80;;;;;;5081702;28;20035;-58
2022/06/30 07:32:51;;;;;;;5.60;4.63;;;27.40;73.80;;;;;;5077107;28;20053;-58
2022/06/30 07:35:17;;;;;;;4.60;4.03;;;27.40;73.60;;;;;;5083161;28;20035;-56
2022/06/30 07:37:43;;;;;;;5.28;4.35;;;27.40;73.50;;;;;;5086674;28;20047;-59
2022/06/30 07:40:10;;;;;;;5.50;4.47;;;27.40;73.40;;;;;;5088046;27;20085;-58
2022/06/30 07:42:35;;;;;;;5.55;4.30;;;27.30;73.50;;;;;;5085720;27;20057;-59
2022/06/30 07:45:03;;;;;;;5.63;4.25;;;27.30;73.30;;;;;;5086423;27;20138;-59
2022/06/30 07:47:29;;;;;;;4.70;4.20;;;27.30;73.40;;;;;;5082192;27;23012;-59
2022/06/30 07:49:54;;;;;;;5.05;4.30;;;27.20;73.20;;;;;;5088336;27;20032;-57
2022/06/30 07:52:20;;;;;;;4.82;4.32;;;27.20;73.20;;;;;;5078386;27;20861;-60
2022/06/30 07:54:46;;;;;;;5.43;4.88;;;27.10;73.30;;;;;;5087589;27;20452;-59
2022/06/30 07:57:12;;;;;;;5.80;4.80;;;27.10;73.50;;;;;;5086318;27;20031;-58
2022/06/30 07:59:39;;;;;;;6.30;4.53;;;27.10;73.50;;;;;;5079859;28;20037;-58
2022/06/30 08:02:05;;;;;;;5.30;4.65;;;27.10;73.70;;;;;;5084046;27;20055;-59
2022/06/30 08:04:31;;;;;;;5.63;4.70;;;27.20;73.90;;;;;;5093951;27;20136;-58
2022/06/30 08:06:56;;;;;;;4.75;4.18;;;27.20;73.80;;;;;;5082116;27;20053;-58
2022/06/30 08:09:22;;;;;;;5.57;4.85;;;27.30;73.50;;;;;;5083614;27;20020;-58
2022/06/30 08:11:48;;;;;;;4.88;4.05;;;27.40;73.30;;;;;;5079742;27;20059;-59
2022/06/30 08:14:14;;;;;;;5.85;4.53;;;27.50;73.20;;;;;;5073822;27;20081;-58
2022/06/30 08:16:39;;;;;;;5.03;4.53;;;27.60;73.10;;;;;;5074553;27;20023;-57
2022/06/30 08:19:05;;;;;;;4.60;4.07;;;27.60;73.00;;;;;;5080015;27;20024;-59
2022/06/30 08:21:31;;;;;;;5.30;4.50;;;27.60;72.60;;;;;;5084337;27;20024;-59
2022/06/30 08:23:57;;;;;;;4.85;4.28;;;27.70;72.60;;;;;;5088313;27;20506;-58
2022/06/30 08:26:22;;;;;;;5.70;4.28;;;27.70;73.00;;;;;;5086286;27;20495;-59
2022/06/30 08:28:48;;;;;;;5.13;4.63;;;27.70;72.30;;;;;;5086876;27;20379;-60
2022/06/30 08:31:15;;;;;;;5.35;4.13;;;27.70;72.10;;;;;;5062114;27;20024;-59
2022/06/30 08:33:41;;;;;;;5.22;4.47;;;27.70;72.20;;;;;;5081620;27;20066;-58
2022/06/30 08:36:08;;;;;;;4.97;4.47;;;27.70;72.10;;;;;;5086662;27;20155;-58
2022/06/30 08:38:34;;;;;;;5.20;4.35;;;27.60;71.90;;;;;;5078999;27;20103;-58
2022/06/30 08:43:45;;;;;;;4.45;3.92;;;27.60;72.00;;;;;;5082866;27;22098;-57
2022/06/30 08:46:12;;;;;;;5.20;4.50;;;27.50;72.00;;;;;;5084183;27;20046;-57
2022/06/30 08:48:38;;;;;;;5.38;4.53;;;27.50;72.00;;;;;;5089540;27;20536;-59
2022/06/30 08:51:05;;;;;;;4.65;4.15;;;27.50;72.20;;;;;;5082144;27;20160;-59
2022/06/30 08:53:39;;;;;;;4.57;4.00;;;27.40;72.00;;;;;;5080792;27;20105;-58
2022/06/30 08:56:07;;;;;;;5.80;4.78;;;27.40;72.00;;;;;;5079929;27;20034;-57
2022/06/30 08:58:34;;;;;;;5.18;4.38;;;27.40;72.00;;;;;;5083200;27;20089;-59
2022/06/30 09:01:00;;;;;;;5.78;4.25;;;27.30;71.90;;;;;;5079172;27;20027;-59
2022/06/30 09:03:26;;;;;;;5.30;4.13;;;27.30;72.00;;;;;;5075751;27;20069;-59
2022/06/30 09:05:51;;;;;;;5.47;4.50;;;27.30;72.10;;;;;;5081926;27;20407;-58
2022/06/30 09:08:18;;;;;;;5.65;4.03;;;27.30;72.10;;;;;;5080835;27;20647;-59
2022/06/30 09:10:49;;;;;;;5.70;4.38;;;27.30;72.10;;;;;;5084085;27;20046;-57
2022/06/30 09:13:15;;;;;;;4.93;4.43;;;27.20;72.20;;;;;;5075235;27;20016;-58
2022/06/30 09:15:40;;;;;;;5.45;4.85;;;27.20;71.90;;;;;;5074273;27;20441;-58
2022/06/30 09:18:06;;;;;;;5.07;4.57;;;27.20;72.00;;;;;;5083715;27;20104;-59
2022/06/30 09:20:37;;;;;;;5.18;4.40;;;27.20;72.00;;;;;;5075054;27;20036;-59
2022/06/30 09:23:30;;;;;;;5.82;4.80;;;27.30;72.10;;;;;;5074982;27;20028;-57
2022/06/30 09:26:00;;;;;;;4.88;4.20;;;27.20;71.90;;;;;;5074897;27;20096;-60
2022/06/30 09:28:54;;;;;;;5.22;4.55;;;27.30;71.90;;;;;;5072233;28;20115;-59
2022/06/30 09:31:33;;;;;;;4.53;4.00;;;27.20;71.70;;;;;;5085241;27;20074;-58
2022/06/30 09:34:18;;;;;;;5.57;4.83;;;27.10;71.70;;;;;;5083787;27;20020;-59
2022/06/30 09:36:45;;;;;;;5.18;4.53;;;27.10;71.80;;;;;;5079975;27;20766;-59
2022/06/30 09:39:13;;;;;;;5.85;4.82;;;27.00;71.80;;;;;;5064146;28;20051;-59
2022/06/30 09:41:40;;;;;;;5.60;5.03;;;27.00;72.00;;;;;;5079610;28;20034;-59
2022/06/30 09:44:08;;;;;;;5.50;4.88;;;26.90;72.10;;;;;;5079072;27;20104;-59
2022/06/30 09:46:36;;;;;;;5.70;5.05;;;26.90;72.00;;;;;;5076734;27;20024;-59
2022/06/30 09:49:03;;;;;;;6.38;5.50;;;26.90;72.10;;;;;;5082362;27;20042;-59
2022/06/30 09:51:41;;;;;;;6.22;5.35;;;26.80;72.80;;;;;;5082977;27;20039;-59
2022/06/30 09:54:11;;;;;;;5.15;4.65;;;26.70;72.00;;;;;;5077337;27;20100;-59
2022/06/30 09:56:38;;;;;;;5.22;4.35;;;26.70;72.10;;;;;;5072989;27;20059;-59
2022/06/30 09:59:07;;;;;;;5.50;4.80;;;26.70;72.10;;;;;;5073587;28;20031;-59
2022/06/30 10:01:53;;;;;;;4.82;4.32;;;26.70;72.10;;;;;;5074179;27;20032;-58
2022/06/30 10:04:19;;;;;;;5.43;4.63;;;26.60;72.00;;;;;;5068014;27;20131;-57
2022/06/30 10:06:45;;;;;;;5.82;5.20;;;26.60;72.30;;;;;;5067714;27;20045;-57
2022/06/30 10:09:14;;;;;;;5.30;4.78;;;26.60;72.40;;;;;;5077097;27;20028;-58
2022/06/30 10:11:40;;;;;;;5.43;4.35;;;26.60;72.50;;;;;;5081932;27;20024;-58
2022/06/30 10:14:10;;;;;;;5.82;4.32;;;26.60;72.50;;;;;;5056243;28;20055;-58
2022/06/30 10:16:39;;;;;;;5.95;5.13;;;26.60;72.70;;;;;;5067536;27;20085;-58
2022/06/30 10:19:08;;;;;;;5.47;4.68;;;26.60;72.80;;;;;;5070533;27;20028;-58
2022/06/30 10:21:36;;;;;;;6.47;5.25;;;26.60;72.70;;;;;;5068137;28;20036;-57
2022/06/30 10:24:02;;;;;;;5.90;5.22;;;26.60;72.80;;;;;;5070068;28;20103;-57
2022/06/30 10:29:12;;;;;;;5.20;4.70;;;26.60;72.80;;;;;;5080271;28;20222;-58
2022/06/30 10:32:02;;;;;;;6.28;4.95;;;26.60;72.70;;;;;;5067838;28;20034;-58
2022/06/30 10:34:38;;;;;;;5.32;4.75;;;26.60;72.80;;;;;;5077282;27;20040;-59
2022/06/30 10:37:19;;;;;;;5.47;4.80;;;26.70;72.90;;;;;;5078694;28;20507;-58
2022/06/30 10:39:56;;;;;;;5.88;4.43;;;26.70;72.80;;;;;;5072028;28;20545;-59
2022/06/30 10:42:55;;;;;;;5.38;4.43;;;26.80;72.80;;;;;;5069291;28;20518;-59
2022/06/30 10:45:26;;;;;;;5.05;4.55;;;26.80;72.50;;;;;;5067817;27;20050;-58
2022/06/30 10:47:59;;;;;;;4.95;4.47;;;26.70;72.40;;;;;;5073017;28;20021;-58
2022/06/30 10:50:39;;;;;;;5.25;4.40;;;26.70;72.20;;;;;;5084802;27;20562;-58
2022/06/30 10:53:06;;;;;;;5.03;4.53;;;26.70;72.40;;;;;;5082952;28;20039;-59
2022/06/30 10:55:50;;;;;;;6.22;4.78;;;26.70;72.50;;;;;;5082722;27;20043;-59
2022/06/30 10:58:17;;;;;;;4.85;4.15;;;26.60;72.40;;;;;;5061774;28;20411;-58
2022/06/30 11:00:44;;;;;;;5.30;4.65;;;26.50;72.50;;;;;;5078609;28;20067;-57
2022/06/30 11:03:30;;;;;;;5.07;4.00;;;26.50;72.70;;;;;;5076547;28;20077;-58
2022/06/30 11:05:57;;;;;;;4.60;4.15;;;26.40;72.60;;;;;;5076592;28;20034;-58
2022/06/30 11:11:34;;;;;;;4.88;4.38;;;26.40;72.60;;;;;;5065315;28;20059;-58
2022/06/30 11:14:03;;;;;;;4.88;4.13;;;26.40;72.90;;;;;;5081086;27;20118;-58
2022/06/30 11:16:30;;;;;;;4.65;4.03;;;26.40;72.90;;;;;;5083767;27;20032;-58
2022/06/30 11:18:56;;;;;;;4.93;4.30;;;26.40;73.00;;;;;;5073952;28;20032;-59
2022/06/30 11:21:21;;;;;;;4.57;4.15;;;26.40;72.90;;;;;;5087246;27;20039;-59
2022/06/30 11:23:48;;;;;;;5.10;4.60;;;26.40;73.00;;;;;;5083837;27;20035;-59
2022/06/30 11:29:10;;;;;;;5.30;4.15;;;26.40;73.00;;;;;;5087854;27;20109;-59
2022/06/30 11:31:38;;;;;;;4.10;3.70;;;26.40;73.00;;;;;;5086383;27;20035;-58
2022/06/30 11:34:08;;;;;;;5.82;4.65;;;26.40;73.00;;;;;;5079331;27;20052;-58
2022/06/30 11:36:35;;;;;;;5.03;4.15;;;26.50;72.80;;;;;;5087525;27;20062;-57
2022/06/30 11:39:04;;;;;;;5.10;4.22;;;26.50;72.80;;;;;;5076796;27;20035;-57
2022/06/30 11:44:15;;;;;;;4.65;3.90;;;26.50;72.50;;;;;;5075749;28;20410;-58
2022/06/30 11:46:55;;;;;;;4.70;3.88;;;26.50;72.40;;;;;;5071054;27;20070;-58
2022/06/30 11:49:27;;;;;;;4.80;4.28;;;26.60;72.40;;;;;;5081766;27;20031;-59
2022/06/30 11:51:54;;;;;;;4.43;3.92;;;26.60;72.30;;;;;;5072561;27;20047;-59
2022/06/30 11:54:23;;;;;;;4.30;3.90;;;26.60;72.30;;;;;;5090912;27;20027;-58
2022/06/30 11:56:54;;;;;;;4.55;4.15;;;26.70;72.60;;;;;;5084760;27;20063;-58
2022/06/30 11:59:20;;;;;;;4.68;4.28;;;26.70;72.20;;;;;;5076348;27;20039;-57
2022/06/30 12:02:06;;;;;;;4.70;4.30;;;26.70;72.10;;;;;;5078044;27;20069;-58
2022/06/30 12:04:34;;;;;;;4.80;4.20;;;26.80;71.90;;;;;;5075669;27;20503;-59
2022/06/30 12:07:02;;;;;;;5.18;4.30;;;26.80;71.90;;;;;;5077794;27;20058;-59
2022/06/30 12:09:28;;;;;;;4.30;3.60;;;26.90;71.90;;;;;;5067208;27;20051;-58
2022/06/30 12:11:56;;;;;;;4.10;3.70;;;26.90;71.70;;;;;;5084116;27;20131;-59
2022/06/30 12:14:23;;;;;;;4.22;3.78;;;27.00;71.70;;;;;;5065157;28;20541;-59
2022/06/30 12:16:54;;;;;;;4.13;3.72;;;27.00;71.40;;;;;;5079928;27;20483;-57
2022/06/30 12:19:22;;;;;;;4.22;3.83;;;27.00;71.30;;;;;;5079865;27;20055;-57
2022/06/30 12:21:48;;;;;;;4.45;4.05;;;27.00;71.40;;;;;;5087783;27;20024;-59
2022/06/30 12:24:14;;;;;;;4.47;3.88;;;27.00;71.40;;;;;;5076956;28;20043;-59
2022/06/30 12:26:40;;;;;;;4.45;4.05;;;27.00;71.30;;;;;;5070008;27;20036;-58
2022/06/30 12:29:13;;;;;;;4.25;3.85;;;27.10;71.40;;;;;;5075269;27;20032;-58
2022/06/30 12:31:39;;;;;;;4.82;4.28;;;27.10;71.20;;;;;;5083772;27;20034;-57
2022/06/30 12:34:04;;;;;;;5.40;4.10;;;27.10;70.90;;;;;;5058481;28;21251;-58
2022/06/30 12:36:33;;;;;;;4.60;4.00;;;27.20;70.80;;;;;;5080814;27;20483;-56
2022/06/30 12:39:12;;;;;;;3.88;3.45;;;27.30;70.70;;;;;;5079093;27;20036;-56
2022/06/30 12:41:37;;;;;;;4.05;3.55;;;27.30;70.60;;;;;;5084143;27;20031;-57
2022/06/30 12:44:03;;;;;;;4.15;3.75;;;27.30;70.50;;;;;;5085335;27;20053;-58
2022/06/30 12:46:41;;;;;;;4.15;3.75;;;27.30;70.60;;;;;;5074427;27;20035;-58
2022/06/30 12:49:22;;;;;;;3.67;3.38;;;27.40;70.50;;;;;;5082970;27;20031;-57
2022/06/30 12:51:48;;;;;;;;;;;27.40;70.30;;;;;;5085983;27;20114;-57
2022/06/30 12:54:16;;;;;;;3.83;3.42;;;27.40;70.10;;;;;;5081091;27;20758;-58
2022/06/30 12:56:50;;;;;;;3.70;3.40;;;27.40;70.40;;;;;;5078585;27;20066;-57
2022/06/30 12:59:17;;;;;;;3.88;3.47;;;27.40;70.20;;;;;;5077692;28;20063;-58
2022/06/30 13:01:46;;;;;;;3.85;3.50;;;27.40;70.10;;;;;;5074578;28;20080;-57
2022/06/30 13:04:15;;;;;;;3.92;3.45;;;27.40;69.80;;;;;;5078644;27;20036;-58
2022/06/30 13:06:42;;;;;;;3.80;3.40;;;27.40;69.60;;;;;;5087526;27;20033;-57
2022/06/30 13:09:10;;;;;;;4.30;3.53;;;27.40;69.80;;;;;;5082683;27;20407;-58
2022/06/30 13:11:46;;;;;;;4.25;3.50;;;27.40;69.80;;;;;;5091121;27;20050;-59